sensor_id;sensor_type;location;lat;lon;timestamp;P1;durP1;ratioP1;P2;durP2;ratioP2
52618;SDS011;38513;53.234;6.568;2023-11-19T00:02:00;72.47;;;30.65;;
52618;SDS011;38513;53.234;6.568;2023-11-19T00:04:28;74.90;;;29.17;;
52618;SDS011;38513;53.234;6.568;2023-11-19T00:06:55;72.72;;;29.38;;
52618;SDS011;38513;53.234;6.568;2023-11-19T00:09:30;67.53;;;28.05;;
52618;SDS011;38513;53.234;6.568;2023-11-19T00:12:01;64.25;;;27.55;;
52618;SDS011;38513;53.234;6.568;2023-11-19T00:15:29;66.63;;;26.37;;
52618;SDS011;38513;53.234;6.568;2023-11-19T00:17:48;64.30;;;24.98;;
52618;SDS011;38513;53.234;6.568;2023-11-19T00:20:15;64.68;;;25.73;;
52618;SDS011;38513;53.234;6.568;2023-11-19T00:22:41;64.13;;;25.13;;
52618;SDS011;38513;53.234;6.568;2023-11-19T00:25:10;67.68;;;25.27;;
52618;SDS011;38513;53.234;6.568;2023-11-19T00:27:40;57.15;;;23.02;;
52618;SDS011;38513;53.234;6.568;2023-11-19T00:30:12;59.47;;;22.37;;
52618;SDS011;38513;53.234;6.568;2023-11-19T00:32:45;58.42;;;21.50;;
52618;SDS011;38513;53.234;6.568;2023-11-19T00:35:14;54.92;;;19.55;;
52618;SDS011;38513;53.234;6.568;2023-11-19T00:37:41;52.97;;;19.95;;
52618;SDS011;38513;53.234;6.568;2023-11-19T00:40:14;49.83;;;18.25;;
52618;SDS011;38513;53.234;6.568;2023-11-19T00:42:42;43.35;;;16.33;;
52618;SDS011;38513;53.234;6.568;2023-11-19T00:45:09;49.90;;;16.88;;
52618;SDS011;38513;53.234;6.568;2023-11-19T00:47:40;40.88;;;14.07;;
52618;SDS011;38513;53.234;6.568;2023-11-19T00:50:07;48.85;;;13.68;;
52618;SDS011;38513;53.234;6.568;2023-11-19T00:52:37;43.58;;;12.10;;
52618;SDS011;38513;53.234;6.568;2023-11-19T00:55:03;43.88;;;11.85;;
52618;SDS011;38513;53.234;6.568;2023-11-19T00:57:30;49.50;;;12.10;;
52618;SDS011;38513;53.234;6.568;2023-11-19T00:59:57;48.60;;;11.98;;
52618;SDS011;38513;53.234;6.568;2023-11-19T01:02:30;39.88;;;10.43;;
52618;SDS011;38513;53.234;6.568;2023-11-19T01:05:29;40.42;;;10.32;;
52618;SDS011;38513;53.234;6.568;2023-11-19T01:07:55;39.72;;;9.13;;
52618;SDS011;38513;53.234;6.568;2023-11-19T01:10:21;46.00;;;10.23;;
52618;SDS011;38513;53.234;6.568;2023-11-19T01:12:47;44.38;;;10.05;;
52618;SDS011;38513;53.234;6.568;2023-11-19T01:15:14;43.95;;;9.25;;
52618;SDS011;38513;53.234;6.568;2023-11-19T01:17:40;40.08;;;9.48;;
52618;SDS011;38513;53.234;6.568;2023-11-19T01:20:06;43.15;;;9.50;;
52618;SDS011;38513;53.234;6.568;2023-11-19T01:22:34;45.75;;;8.73;;
52618;SDS011;38513;53.234;6.568;2023-11-19T01:25:00;39.22;;;8.70;;
52618;SDS011;38513;53.234;6.568;2023-11-19T01:27:26;47.20;;;9.52;;
52618;SDS011;38513;53.234;6.568;2023-11-19T01:29:55;41.37;;;8.93;;
52618;SDS011;38513;53.234;6.568;2023-11-19T01:32:21;47.60;;;9.00;;
52618;SDS011;38513;53.234;6.568;2023-11-19T01:34:49;42.63;;;8.57;;
52618;SDS011;38513;53.234;6.568;2023-11-19T01:37:15;44.25;;;9.30;;
52618;SDS011;38513;53.234;6.568;2023-11-19T01:39:44;44.65;;;9.52;;
52618;SDS011;38513;53.234;6.568;2023-11-19T01:42:10;43.90;;;9.27;;
52618;SDS011;38513;53.234;6.568;2023-11-19T01:44:37;44.83;;;9.60;;
52618;SDS011;38513;53.234;6.568;2023-11-19T01:47:04;46.70;;;9.13;;
52618;SDS011;38513;53.234;6.568;2023-11-19T01:49:30;44.05;;;8.05;;
52618;SDS011;38513;53.234;6.568;2023-11-19T01:51:58;43.40;;;8.25;;
52618;SDS011;38513;53.234;6.568;2023-11-19T01:54:25;45.90;;;7.85;;
52618;SDS011;38513;53.234;6.568;2023-11-19T01:57:06;40.65;;;8.07;;
52618;SDS011;38513;53.234;6.568;2023-11-19T01:59:32;43.20;;;9.07;;
52618;SDS011;38513;53.234;6.568;2023-11-19T02:01:59;40.17;;;8.20;;
52618;SDS011;38513;53.234;6.568;2023-11-19T02:04:25;40.60;;;8.15;;
52618;SDS011;38513;53.234;6.568;2023-11-19T02:06:51;39.50;;;7.70;;
52618;SDS011;38513;53.234;6.568;2023-11-19T02:09:20;45.50;;;8.17;;
52618;SDS011;38513;53.234;6.568;2023-11-19T02:11:46;43.90;;;8.63;;
52618;SDS011;38513;53.234;6.568;2023-11-19T02:14:19;38.75;;;8.27;;
52618;SDS011;38513;53.234;6.568;2023-11-19T02:16:49;47.60;;;8.27;;
52618;SDS011;38513;53.234;6.568;2023-11-19T02:19:15;39.90;;;8.48;;
52618;SDS011;38513;53.234;6.568;2023-11-19T02:21:41;43.83;;;7.90;;
52618;SDS011;38513;53.234;6.568;2023-11-19T02:24:08;51.25;;;7.93;;
52618;SDS011;38513;53.234;6.568;2023-11-19T02:29:03;39.85;;;8.23;;
52618;SDS011;38513;53.234;6.568;2023-11-19T02:31:32;43.72;;;8.57;;
52618;SDS011;38513;53.234;6.568;2023-11-19T02:33:59;41.90;;;8.90;;
52618;SDS011;38513;53.234;6.568;2023-11-19T02:36:27;44.45;;;7.82;;
52618;SDS011;38513;53.234;6.568;2023-11-19T02:38:53;49.00;;;8.32;;
52618;SDS011;38513;53.234;6.568;2023-11-19T02:41:20;42.60;;;8.20;;
52618;SDS011;38513;53.234;6.568;2023-11-19T02:43:46;42.85;;;8.13;;
52618;SDS011;38513;53.234;6.568;2023-11-19T02:46:13;43.03;;;8.07;;
52618;SDS011;38513;53.234;6.568;2023-11-19T02:48:40;43.83;;;7.85;;
52618;SDS011;38513;53.234;6.568;2023-11-19T02:51:08;44.75;;;8.50;;
52618;SDS011;38513;53.234;6.568;2023-11-19T02:53:34;42.85;;;8.45;;
52618;SDS011;38513;53.234;6.568;2023-11-19T02:56:00;42.85;;;9.40;;
52618;SDS011;38513;53.234;6.568;2023-11-19T02:58:34;38.67;;;8.05;;
52618;SDS011;38513;53.234;6.568;2023-11-19T03:01:00;42.10;;;8.68;;
52618;SDS011;38513;53.234;6.568;2023-11-19T03:03:37;36.85;;;8.40;;
52618;SDS011;38513;53.234;6.568;2023-11-19T03:06:06;40.10;;;8.35;;
52618;SDS011;38513;53.234;6.568;2023-11-19T03:08:34;45.63;;;8.20;;
52618;SDS011;38513;53.234;6.568;2023-11-19T03:11:01;42.33;;;8.57;;
52618;SDS011;38513;53.234;6.568;2023-11-19T03:13:27;54.80;;;9.48;;
52618;SDS011;38513;53.234;6.568;2023-11-19T03:15:53;45.05;;;8.05;;
52618;SDS011;38513;53.234;6.568;2023-11-19T03:18:20;44.38;;;7.75;;
52618;SDS011;38513;53.234;6.568;2023-11-19T03:20:46;39.50;;;8.13;;
52618;SDS011;38513;53.234;6.568;2023-11-19T03:23:13;42.60;;;8.43;;
52618;SDS011;38513;53.234;6.568;2023-11-19T03:25:39;38.77;;;7.93;;
52618;SDS011;38513;53.234;6.568;2023-11-19T03:28:05;38.33;;;8.60;;
52618;SDS011;38513;53.234;6.568;2023-11-19T03:30:31;39.15;;;7.88;;
52618;SDS011;38513;53.234;6.568;2023-11-19T03:32:58;45.88;;;8.55;;
52618;SDS011;38513;53.234;6.568;2023-11-19T03:35:26;44.57;;;8.60;;
52618;SDS011;38513;53.234;6.568;2023-11-19T03:37:53;44.47;;;8.82;;
52618;SDS011;38513;53.234;6.568;2023-11-19T03:40:19;41.45;;;8.30;;
52618;SDS011;38513;53.234;6.568;2023-11-19T03:42:46;40.58;;;7.25;;
52618;SDS011;38513;53.234;6.568;2023-11-19T03:45:12;47.35;;;8.77;;
52618;SDS011;38513;53.234;6.568;2023-11-19T03:47:38;46.17;;;8.88;;
52618;SDS011;38513;53.234;6.568;2023-11-19T03:50:05;42.03;;;8.43;;
52618;SDS011;38513;53.234;6.568;2023-11-19T03:52:36;39.07;;;7.73;;
52618;SDS011;38513;53.234;6.568;2023-11-19T03:55:05;38.58;;;7.80;;
52618;SDS011;38513;53.234;6.568;2023-11-19T03:57:33;44.35;;;7.90;;
52618;SDS011;38513;53.234;6.568;2023-11-19T04:00:00;39.83;;;7.53;;
52618;SDS011;38513;53.234;6.568;2023-11-19T04:02:32;37.85;;;7.28;;
52618;SDS011;38513;53.234;6.568;2023-11-19T04:04:58;41.67;;;8.40;;
52618;SDS011;38513;53.234;6.568;2023-11-19T04:07:24;47.90;;;8.30;;
52618;SDS011;38513;53.234;6.568;2023-11-19T04:09:50;37.50;;;8.10;;
52618;SDS011;38513;53.234;6.568;2023-11-19T04:12:16;44.50;;;8.32;;
52618;SDS011;38513;53.234;6.568;2023-11-19T04:14:43;41.72;;;8.32;;
52618;SDS011;38513;53.234;6.568;2023-11-19T04:17:09;42.75;;;8.63;;
52618;SDS011;38513;53.234;6.568;2023-11-19T04:19:35;43.47;;;8.65;;
52618;SDS011;38513;53.234;6.568;2023-11-19T04:22:01;42.83;;;8.13;;
52618;SDS011;38513;53.234;6.568;2023-11-19T04:24:28;40.47;;;8.90;;
52618;SDS011;38513;53.234;6.568;2023-11-19T04:26:54;44.03;;;8.00;;
52618;SDS011;38513;53.234;6.568;2023-11-19T04:29:20;45.83;;;8.40;;
52618;SDS011;38513;53.234;6.568;2023-11-19T04:31:46;46.80;;;8.43;;
52618;SDS011;38513;53.234;6.568;2023-11-19T04:34:13;49.28;;;8.35;;
52618;SDS011;38513;53.234;6.568;2023-11-19T04:36:39;44.05;;;9.73;;
52618;SDS011;38513;53.234;6.568;2023-11-19T04:39:05;45.57;;;9.53;;
52618;SDS011;38513;53.234;6.568;2023-11-19T04:44:17;43.38;;;9.80;;
52618;SDS011;38513;53.234;6.568;2023-11-19T04:46:45;43.60;;;10.00;;
52618;SDS011;38513;53.234;6.568;2023-11-19T04:49:12;47.58;;;10.07;;
52618;SDS011;38513;53.234;6.568;2023-11-19T04:51:42;45.33;;;9.98;;
52618;SDS011;38513;53.234;6.568;2023-11-19T04:54:09;50.97;;;9.77;;
52618;SDS011;38513;53.234;6.568;2023-11-19T04:56:35;41.03;;;9.73;;
52618;SDS011;38513;53.234;6.568;2023-11-19T04:59:05;42.15;;;9.52;;
52618;SDS011;38513;53.234;6.568;2023-11-19T05:01:31;41.40;;;8.63;;
52618;SDS011;38513;53.234;6.568;2023-11-19T05:03:58;47.72;;;10.02;;
52618;SDS011;38513;53.234;6.568;2023-11-19T05:06:28;43.20;;;9.65;;
52618;SDS011;38513;53.234;6.568;2023-11-19T05:08:54;47.47;;;10.65;;
52618;SDS011;38513;53.234;6.568;2023-11-19T05:11:21;43.20;;;8.90;;
52618;SDS011;38513;53.234;6.568;2023-11-19T05:13:47;44.05;;;9.88;;
52618;SDS011;38513;53.234;6.568;2023-11-19T05:16:13;51.83;;;10.40;;
52618;SDS011;38513;53.234;6.568;2023-11-19T05:18:40;56.67;;;10.40;;
52618;SDS011;38513;53.234;6.568;2023-11-19T05:21:06;48.28;;;10.45;;
52618;SDS011;38513;53.234;6.568;2023-11-19T05:23:33;39.35;;;9.55;;
52618;SDS011;38513;53.234;6.568;2023-11-19T05:26:00;50.70;;;10.45;;
52618;SDS011;38513;53.234;6.568;2023-11-19T05:28:26;46.00;;;10.13;;
52618;SDS011;38513;53.234;6.568;2023-11-19T05:30:52;43.72;;;10.20;;
52618;SDS011;38513;53.234;6.568;2023-11-19T05:33:19;44.72;;;10.00;;
52618;SDS011;38513;53.234;6.568;2023-11-19T05:35:45;47.38;;;9.65;;
52618;SDS011;38513;53.234;6.568;2023-11-19T05:38:11;47.03;;;10.32;;
52618;SDS011;38513;53.234;6.568;2023-11-19T05:40:37;52.37;;;10.10;;
52618;SDS011;38513;53.234;6.568;2023-11-19T05:43:04;50.30;;;10.73;;
52618;SDS011;38513;53.234;6.568;2023-11-19T05:45:31;49.50;;;10.20;;
52618;SDS011;38513;53.234;6.568;2023-11-19T05:47:58;46.67;;;9.60;;
52618;SDS011;38513;53.234;6.568;2023-11-19T05:50:24;47.70;;;9.53;;
52618;SDS011;38513;53.234;6.568;2023-11-19T05:52:50;48.60;;;11.13;;
52618;SDS011;38513;53.234;6.568;2023-11-19T05:55:18;43.38;;;9.77;;
52618;SDS011;38513;53.234;6.568;2023-11-19T05:57:44;46.08;;;10.50;;
52618;SDS011;38513;53.234;6.568;2023-11-19T06:00:11;44.95;;;9.95;;
52618;SDS011;38513;53.234;6.568;2023-11-19T06:02:38;49.50;;;9.60;;
52618;SDS011;38513;53.234;6.568;2023-11-19T06:05:05;48.45;;;10.63;;
52618;SDS011;38513;53.234;6.568;2023-11-19T06:07:35;50.25;;;10.20;;
52618;SDS011;38513;53.234;6.568;2023-11-19T06:10:02;46.80;;;10.32;;
52618;SDS011;38513;53.234;6.568;2023-11-19T06:12:30;45.78;;;9.57;;
52618;SDS011;38513;53.234;6.568;2023-11-19T06:14:59;53.75;;;9.73;;
52618;SDS011;38513;53.234;6.568;2023-11-19T06:17:25;44.90;;;10.00;;
52618;SDS011;38513;53.234;6.568;2023-11-19T06:19:52;46.70;;;10.38;;
52618;SDS011;38513;53.234;6.568;2023-11-19T06:22:18;48.00;;;9.75;;
52618;SDS011;38513;53.234;6.568;2023-11-19T06:24:44;48.40;;;9.55;;
52618;SDS011;38513;53.234;6.568;2023-11-19T06:27:10;43.17;;;9.73;;
52618;SDS011;38513;53.234;6.568;2023-11-19T06:29:38;44.13;;;10.13;;
52618;SDS011;38513;53.234;6.568;2023-11-19T06:32:06;48.13;;;9.90;;
52618;SDS011;38513;53.234;6.568;2023-11-19T06:34:33;44.28;;;9.40;;
52618;SDS011;38513;53.234;6.568;2023-11-19T06:36:59;46.93;;;10.40;;
52618;SDS011;38513;53.234;6.568;2023-11-19T06:39:31;40.33;;;9.32;;
52618;SDS011;38513;53.234;6.568;2023-11-19T06:42:00;48.42;;;9.73;;
52618;SDS011;38513;53.234;6.568;2023-11-19T06:44:29;49.73;;;9.90;;
52618;SDS011;38513;53.234;6.568;2023-11-19T06:46:56;43.42;;;10.07;;
52618;SDS011;38513;53.234;6.568;2023-11-19T06:49:22;52.47;;;10.93;;
52618;SDS011;38513;53.234;6.568;2023-11-19T06:51:51;50.22;;;10.30;;
52618;SDS011;38513;53.234;6.568;2023-11-19T06:54:17;54.22;;;10.05;;
52618;SDS011;38513;53.234;6.568;2023-11-19T06:56:44;53.35;;;10.20;;
52618;SDS011;38513;53.234;6.568;2023-11-19T06:59:10;51.80;;;9.57;;
52618;SDS011;38513;53.234;6.568;2023-11-19T07:01:36;47.90;;;9.93;;
52618;SDS011;38513;53.234;6.568;2023-11-19T07:04:04;48.33;;;10.07;;
52618;SDS011;38513;53.234;6.568;2023-11-19T07:06:34;50.72;;;9.43;;
52618;SDS011;38513;53.234;6.568;2023-11-19T07:09:02;48.60;;;10.18;;
52618;SDS011;38513;53.234;6.568;2023-11-19T07:11:43;47.00;;;9.75;;
52618;SDS011;38513;53.234;6.568;2023-11-19T07:14:10;50.85;;;11.05;;
52618;SDS011;38513;53.234;6.568;2023-11-19T07:16:37;44.80;;;10.05;;
52618;SDS011;38513;53.234;6.568;2023-11-19T07:19:06;46.95;;;10.23;;
52618;SDS011;38513;53.234;6.568;2023-11-19T07:21:32;49.70;;;10.38;;
52618;SDS011;38513;53.234;6.568;2023-11-19T07:23:59;47.90;;;9.73;;
52618;SDS011;38513;53.234;6.568;2023-11-19T07:26:25;46.13;;;9.70;;
52618;SDS011;38513;53.234;6.568;2023-11-19T07:28:52;45.88;;;8.80;;
52618;SDS011;38513;53.234;6.568;2023-11-19T07:31:18;45.85;;;10.38;;
52618;SDS011;38513;53.234;6.568;2023-11-19T07:33:45;47.97;;;10.27;;
52618;SDS011;38513;53.234;6.568;2023-11-19T07:36:11;48.58;;;10.05;;
52618;SDS011;38513;53.234;6.568;2023-11-19T07:38:45;49.58;;;9.90;;
52618;SDS011;38513;53.234;6.568;2023-11-19T07:41:12;48.92;;;10.13;;
52618;SDS011;38513;53.234;6.568;2023-11-19T07:43:39;47.03;;;11.27;;
52618;SDS011;38513;53.234;6.568;2023-11-19T07:46:10;46.37;;;9.60;;
52618;SDS011;38513;53.234;6.568;2023-11-19T07:48:38;55.05;;;10.65;;
52618;SDS011;38513;53.234;6.568;2023-11-19T07:51:04;46.50;;;10.80;;
52618;SDS011;38513;53.234;6.568;2023-11-19T07:53:30;46.97;;;10.05;;
52618;SDS011;38513;53.234;6.568;2023-11-19T07:55:58;44.30;;;9.43;;
52618;SDS011;38513;53.234;6.568;2023-11-19T07:58:26;50.92;;;10.73;;
52618;SDS011;38513;53.234;6.568;2023-11-19T08:00:53;47.38;;;10.32;;
52618;SDS011;38513;53.234;6.568;2023-11-19T08:03:19;46.50;;;9.70;;
52618;SDS011;38513;53.234;6.568;2023-11-19T08:05:47;44.03;;;9.80;;
52618;SDS011;38513;53.234;6.568;2023-11-19T08:08:13;48.53;;;10.73;;
52618;SDS011;38513;53.234;6.568;2023-11-19T08:10:40;44.08;;;8.88;;
52618;SDS011;38513;53.234;6.568;2023-11-19T08:13:06;47.08;;;10.25;;
52618;SDS011;38513;53.234;6.568;2023-11-19T08:15:35;40.47;;;9.55;;
52618;SDS011;38513;53.234;6.568;2023-11-19T08:18:02;50.22;;;9.65;;
52618;SDS011;38513;53.234;6.568;2023-11-19T08:20:28;42.42;;;9.23;;
52618;SDS011;38513;53.234;6.568;2023-11-19T08:22:54;42.70;;;9.05;;
52618;SDS011;38513;53.234;6.568;2023-11-19T08:25:20;46.28;;;9.63;;
52618;SDS011;38513;53.234;6.568;2023-11-19T08:27:46;46.42;;;9.82;;
52618;SDS011;38513;53.234;6.568;2023-11-19T08:30:13;45.00;;;10.10;;
52618;SDS011;38513;53.234;6.568;2023-11-19T08:32:39;47.15;;;10.00;;
52618;SDS011;38513;53.234;6.568;2023-11-19T08:35:06;47.83;;;10.10;;
52618;SDS011;38513;53.234;6.568;2023-11-19T08:37:32;47.60;;;9.95;;
52618;SDS011;38513;53.234;6.568;2023-11-19T08:39:58;48.60;;;10.05;;
52618;SDS011;38513;53.234;6.568;2023-11-19T08:42:26;47.72;;;10.02;;
52618;SDS011;38513;53.234;6.568;2023-11-19T08:44:53;49.92;;;10.48;;
52618;SDS011;38513;53.234;6.568;2023-11-19T08:47:20;53.22;;;10.27;;
52618;SDS011;38513;53.234;6.568;2023-11-19T08:49:50;47.58;;;9.38;;
52618;SDS011;38513;53.234;6.568;2023-11-19T08:52:17;42.65;;;9.13;;
52618;SDS011;38513;53.234;6.568;2023-11-19T08:54:43;46.90;;;10.27;;
52618;SDS011;38513;53.234;6.568;2023-11-19T08:57:10;41.60;;;9.30;;
52618;SDS011;38513;53.234;6.568;2023-11-19T08:59:36;43.95;;;9.30;;
52618;SDS011;38513;53.234;6.568;2023-11-19T09:02:06;46.73;;;9.97;;
52618;SDS011;38513;53.234;6.568;2023-11-19T09:04:35;46.03;;;9.68;;
52618;SDS011;38513;53.234;6.568;2023-11-19T09:07:02;47.35;;;10.07;;
52618;SDS011;38513;53.234;6.568;2023-11-19T09:09:28;47.78;;;9.30;;
52618;SDS011;38513;53.234;6.568;2023-11-19T09:11:55;43.83;;;9.60;;
52618;SDS011;38513;53.234;6.568;2023-11-19T09:14:22;44.50;;;9.32;;
52618;SDS011;38513;53.234;6.568;2023-11-19T09:16:51;51.63;;;10.55;;
52618;SDS011;38513;53.234;6.568;2023-11-19T09:19:18;44.47;;;10.02;;
52618;SDS011;38513;53.234;6.568;2023-11-19T09:21:44;46.17;;;10.17;;
52618;SDS011;38513;53.234;6.568;2023-11-19T09:24:11;49.55;;;9.68;;
52618;SDS011;38513;53.234;6.568;2023-11-19T09:26:37;40.22;;;9.20;;
52618;SDS011;38513;53.234;6.568;2023-11-19T09:29:06;39.50;;;9.07;;
52618;SDS011;38513;53.234;6.568;2023-11-19T09:31:32;47.13;;;9.27;;
52618;SDS011;38513;53.234;6.568;2023-11-19T09:33:59;48.70;;;9.45;;
52618;SDS011;38513;53.234;6.568;2023-11-19T09:36:26;48.55;;;9.85;;
52618;SDS011;38513;53.234;6.568;2023-11-19T09:38:52;45.13;;;9.20;;
52618;SDS011;38513;53.234;6.568;2023-11-19T09:41:18;47.97;;;9.73;;
52618;SDS011;38513;53.234;6.568;2023-11-19T09:43:45;47.33;;;9.65;;
52618;SDS011;38513;53.234;6.568;2023-11-19T09:46:12;41.88;;;9.23;;
52618;SDS011;38513;53.234;6.568;2023-11-19T09:48:39;42.22;;;9.82;;
52618;SDS011;38513;53.234;6.568;2023-11-19T09:51:06;45.80;;;9.85;;
52618;SDS011;38513;53.234;6.568;2023-11-19T09:53:33;41.03;;;10.02;;
52618;SDS011;38513;53.234;6.568;2023-11-19T09:56:03;42.00;;;9.53;;
52618;SDS011;38513;53.234;6.568;2023-11-19T09:58:29;44.08;;;9.23;;
52618;SDS011;38513;53.234;6.568;2023-11-19T10:00:56;48.17;;;9.30;;
52618;SDS011;38513;53.234;6.568;2023-11-19T10:03:35;45.00;;;9.20;;
52618;SDS011;38513;53.234;6.568;2023-11-19T10:06:08;48.47;;;9.05;;
52618;SDS011;38513;53.234;6.568;2023-11-19T10:08:37;38.85;;;8.60;;
52618;SDS011;38513;53.234;6.568;2023-11-19T10:11:04;47.50;;;9.02;;
52618;SDS011;38513;53.234;6.568;2023-11-19T10:13:31;43.35;;;8.80;;
52618;SDS011;38513;53.234;6.568;2023-11-19T10:15:57;45.15;;;9.25;;
52618;SDS011;38513;53.234;6.568;2023-11-19T10:18:27;42.35;;;9.10;;
52618;SDS011;38513;53.234;6.568;2023-11-19T10:20:53;41.22;;;8.95;;
52618;SDS011;38513;53.234;6.568;2023-11-19T10:23:20;40.05;;;8.75;;
52618;SDS011;38513;53.234;6.568;2023-11-19T10:25:46;42.87;;;9.17;;
52618;SDS011;38513;53.234;6.568;2023-11-19T10:28:14;42.30;;;9.65;;
52618;SDS011;38513;53.234;6.568;2023-11-19T10:30:44;43.63;;;9.10;;
52618;SDS011;38513;53.234;6.568;2023-11-19T10:33:10;39.92;;;8.88;;
52618;SDS011;38513;53.234;6.568;2023-11-19T10:35:58;38.97;;;7.80;;
52618;SDS011;38513;53.234;6.568;2023-11-19T10:38:25;42.22;;;8.80;;
52618;SDS011;38513;53.234;6.568;2023-11-19T10:40:52;41.72;;;9.15;;
52618;SDS011;38513;53.234;6.568;2023-11-19T10:43:19;43.08;;;8.73;;
52618;SDS011;38513;53.234;6.568;2023-11-19T10:45:46;38.97;;;7.70;;
52618;SDS011;38513;53.234;6.568;2023-11-19T10:48:12;43.45;;;8.73;;
52618;SDS011;38513;53.234;6.568;2023-11-19T10:50:39;34.05;;;8.15;;
52618;SDS011;38513;53.234;6.568;2023-11-19T10:53:06;43.65;;;9.02;;
52618;SDS011;38513;53.234;6.568;2023-11-19T10:55:34;42.53;;;8.95;;
52618;SDS011;38513;53.234;6.568;2023-11-19T10:58:01;37.10;;;8.50;;
52618;SDS011;38513;53.234;6.568;2023-11-19T11:01:16;45.55;;;8.68;;
52618;SDS011;38513;53.234;6.568;2023-11-19T11:03:18;41.85;;;8.45;;
52618;SDS011;38513;53.234;6.568;2023-11-19T11:05:48;37.92;;;8.77;;
52618;SDS011;38513;53.234;6.568;2023-11-19T11:08:15;42.78;;;9.63;;
52618;SDS011;38513;53.234;6.568;2023-11-19T11:10:51;44.57;;;9.43;;
52618;SDS011;38513;53.234;6.568;2023-11-19T11:13:19;37.75;;;8.05;;
52618;SDS011;38513;53.234;6.568;2023-11-19T11:15:45;36.20;;;7.88;;
52618;SDS011;38513;53.234;6.568;2023-11-19T11:18:12;40.03;;;8.30;;
52618;SDS011;38513;53.234;6.568;2023-11-19T11:20:39;40.10;;;7.97;;
52618;SDS011;38513;53.234;6.568;2023-11-19T11:31:08;38.65;;;7.68;;
52618;SDS011;38513;53.234;6.568;2023-11-19T11:36:20;38.80;;;8.15;;
52618;SDS011;38513;53.234;6.568;2023-11-19T11:38:48;39.70;;;8.20;;
52618;SDS011;38513;53.234;6.568;2023-11-19T11:41:19;39.33;;;7.30;;
52618;SDS011;38513;53.234;6.568;2023-11-19T11:43:49;35.55;;;6.85;;
52618;SDS011;38513;53.234;6.568;2023-11-19T11:49:01;38.03;;;7.78;;
52618;SDS011;38513;53.234;6.568;2023-11-19T11:57:01;39.60;;;8.05;;
52618;SDS011;38513;53.234;6.568;2023-11-19T12:02:17;39.90;;;7.65;;
52618;SDS011;38513;53.234;6.568;2023-11-19T12:04:51;35.67;;;6.95;;
52618;SDS011;38513;53.234;6.568;2023-11-19T12:09:47;39.20;;;8.13;;
52618;SDS011;38513;53.234;6.568;2023-11-19T12:20:01;35.97;;;7.65;;
52618;SDS011;38513;53.234;6.568;2023-11-19T12:22:27;38.90;;;8.63;;
52618;SDS011;38513;53.234;6.568;2023-11-19T12:24:53;37.22;;;7.63;;
52618;SDS011;38513;53.234;6.568;2023-11-19T12:27:20;42.83;;;7.65;;
52618;SDS011;38513;53.234;6.568;2023-11-19T12:29:48;40.05;;;7.80;;
52618;SDS011;38513;53.234;6.568;2023-11-19T12:32:14;37.55;;;7.60;;
52618;SDS011;38513;53.234;6.568;2023-11-19T12:34:40;34.45;;;6.88;;
52618;SDS011;38513;53.234;6.568;2023-11-19T12:37:07;37.80;;;7.15;;
52618;SDS011;38513;53.234;6.568;2023-11-19T12:39:35;33.90;;;7.30;;
52618;SDS011;38513;53.234;6.568;2023-11-19T12:42:01;36.38;;;7.50;;
52618;SDS011;38513;53.234;6.568;2023-11-19T12:44:28;35.50;;;7.32;;
52618;SDS011;38513;53.234;6.568;2023-11-19T12:47:05;37.63;;;8.02;;
52618;SDS011;38513;53.234;6.568;2023-11-19T12:49:36;34.80;;;7.35;;
52618;SDS011;38513;53.234;6.568;2023-11-19T12:52:10;38.13;;;7.97;;
52618;SDS011;38513;53.234;6.568;2023-11-19T12:54:37;36.30;;;6.85;;
52618;SDS011;38513;53.234;6.568;2023-11-19T12:57:04;35.35;;;7.07;;
52618;SDS011;38513;53.234;6.568;2023-11-19T12:59:32;34.70;;;7.68;;
52618;SDS011;38513;53.234;6.568;2023-11-19T13:01:59;34.50;;;6.97;;
52618;SDS011;38513;53.234;6.568;2023-11-19T13:04:28;36.85;;;7.25;;
52618;SDS011;38513;53.234;6.568;2023-11-19T13:06:58;34.08;;;7.28;;
52618;SDS011;38513;53.234;6.568;2023-11-19T13:09:28;33.63;;;7.47;;
52618;SDS011;38513;53.234;6.568;2023-11-19T13:11:55;34.63;;;6.93;;
52618;SDS011;38513;53.234;6.568;2023-11-19T13:14:21;29.20;;;6.63;;
52618;SDS011;38513;53.234;6.568;2023-11-19T13:16:48;38.35;;;7.55;;
52618;SDS011;38513;53.234;6.568;2023-11-19T13:19:19;29.25;;;6.63;;
52618;SDS011;38513;53.234;6.568;2023-11-19T13:21:45;36.03;;;7.15;;
52618;SDS011;38513;53.234;6.568;2023-11-19T13:24:14;33.20;;;6.90;;
52618;SDS011;38513;53.234;6.568;2023-11-19T13:26:40;30.52;;;7.05;;
52618;SDS011;38513;53.234;6.568;2023-11-19T13:29:06;34.28;;;6.88;;
52618;SDS011;38513;53.234;6.568;2023-11-19T13:31:33;35.30;;;7.40;;
52618;SDS011;38513;53.234;6.568;2023-11-19T13:34:00;31.50;;;7.10;;
52618;SDS011;38513;53.234;6.568;2023-11-19T13:36:26;32.72;;;7.20;;
52618;SDS011;38513;53.234;6.568;2023-11-19T13:38:52;35.53;;;6.43;;
52618;SDS011;38513;53.234;6.568;2023-11-19T13:41:24;33.22;;;6.55;;
52618;SDS011;38513;53.234;6.568;2023-11-19T13:43:50;31.63;;;5.97;;
52618;SDS011;38513;53.234;6.568;2023-11-19T13:46:20;33.07;;;6.83;;
52618;SDS011;38513;53.234;6.568;2023-11-19T13:48:46;30.90;;;6.43;;
52618;SDS011;38513;53.234;6.568;2023-11-19T13:51:14;34.92;;;6.72;;
52618;SDS011;38513;53.234;6.568;2023-11-19T13:53:44;37.65;;;6.97;;
52618;SDS011;38513;53.234;6.568;2023-11-19T13:56:15;37.17;;;7.40;;
52618;SDS011;38513;53.234;6.568;2023-11-19T13:58:55;36.70;;;6.35;;
52618;SDS011;38513;53.234;6.568;2023-11-19T14:01:25;39.03;;;7.25;;
52618;SDS011;38513;53.234;6.568;2023-11-19T14:03:57;33.25;;;6.78;;
52618;SDS011;38513;53.234;6.568;2023-11-19T14:06:28;31.98;;;7.22;;
52618;SDS011;38513;53.234;6.568;2023-11-19T14:09:02;33.80;;;7.03;;
52618;SDS011;38513;53.234;6.568;2023-11-19T14:11:32;33.88;;;7.18;;
52618;SDS011;38513;53.234;6.568;2023-11-19T14:13:58;33.87;;;6.83;;
52618;SDS011;38513;53.234;6.568;2023-11-19T14:16:27;35.50;;;7.33;;
52618;SDS011;38513;53.234;6.568;2023-11-19T14:18:54;33.85;;;7.18;;
52618;SDS011;38513;53.234;6.568;2023-11-19T14:21:21;35.30;;;6.87;;
52618;SDS011;38513;53.234;6.568;2023-11-19T14:23:52;37.95;;;7.18;;
52618;SDS011;38513;53.234;6.568;2023-11-19T14:26:18;30.23;;;6.53;;
52618;SDS011;38513;53.234;6.568;2023-11-19T14:28:45;36.72;;;7.45;;
52618;SDS011;38513;53.234;6.568;2023-11-19T14:31:11;32.25;;;6.93;;
52618;SDS011;38513;53.234;6.568;2023-11-19T14:33:41;35.47;;;6.55;;
52618;SDS011;38513;53.234;6.568;2023-11-19T14:36:07;33.97;;;7.32;;
52618;SDS011;38513;53.234;6.568;2023-11-19T14:38:33;33.75;;;6.93;;
52618;SDS011;38513;53.234;6.568;2023-11-19T14:41:00;34.37;;;6.83;;
52618;SDS011;38513;53.234;6.568;2023-11-19T14:43:26;38.38;;;7.40;;
52618;SDS011;38513;53.234;6.568;2023-11-19T14:45:52;41.30;;;8.38;;
52618;SDS011;38513;53.234;6.568;2023-11-19T14:48:18;40.13;;;9.00;;
52618;SDS011;38513;53.234;6.568;2023-11-19T14:50:44;39.88;;;8.23;;
52618;SDS011;38513;53.234;6.568;2023-11-19T14:53:10;37.00;;;10.10;;
52618;SDS011;38513;53.234;6.568;2023-11-19T14:55:36;36.25;;;8.10;;
52618;SDS011;38513;53.234;6.568;2023-11-19T14:58:03;38.45;;;8.52;;
52618;SDS011;38513;53.234;6.568;2023-11-19T15:00:29;39.20;;;7.75;;
52618;SDS011;38513;53.234;6.568;2023-11-19T15:02:55;34.58;;;7.70;;
52618;SDS011;38513;53.234;6.568;2023-11-19T15:05:21;35.40;;;7.72;;
52618;SDS011;38513;53.234;6.568;2023-11-19T15:07:47;36.95;;;8.05;;
52618;SDS011;38513;53.234;6.568;2023-11-19T15:10:14;34.63;;;7.40;;
52618;SDS011;38513;53.234;6.568;2023-11-19T15:12:40;39.22;;;7.53;;